Time;durP1;ratioP1;P1;durP2;ratioP2;P2;SDS_P1;SDS_P2;PMS_P1;PMS_P2;Temp;Humidity;BMP_temperature;BMP_pressure;BME280_temperature;BME280_humidity;BME280_pressure;Samples;Min_cycle;Max_cycle;Signal;HPM_P1;HPM_P2
2022/01/19 00:00:30;;;;;;;6.60;3.20;;;;;;;-4.91;73.76;99206.35;25061;1317;3070473;-70
2022/01/19 00:02:58;;;;;;;11.70;5.30;;;;;;;-4.88;73.41;99212.31;25095;1316;3026710;-73
2022/01/19 00:05:27;;;;;;;10.40;4.10;;;;;;;-5.01;74.04;99216.80;25059;1317;3049620;-73
2022/01/19 00:07:56;;;;;;;13.10;4.30;;;;;;;-5.00;73.94;99227.04;25062;1316;3026349;-69
2022/01/19 00:10:28;;;;;;;11.20;3.80;;;;;;;-5.10;74.59;99231.66;25034;1318;3054974;-76
2022/01/19 00:12:57;;;;;;;13.50;4.80;;;;;;;-5.05;74.46;99243.96;25029;1316;3029508;-70
2022/01/19 00:15:27;;;;;;;13.20;4.20;;;;;;;-4.38;72.84;99229.78;25084;1316;3027017;-74
2022/01/19 00:17:58;;;;;;;8.20;3.40;;;;;;;-4.01;70.94;99237.14;25079;1317;3026057;-71
2022/01/19 00:20:28;;;;;;;8.20;3.30;;;;;;;-4.15;71.27;99239.78;25090;1316;3026848;-74
2022/01/19 00:22:58;;;;;;;10.20;4.30;;;;;;;-4.08;70.94;99235.13;25096;1317;3026507;-76
2022/01/19 00:25:27;;;;;;;8.50;4.50;;;;;;;-4.36;71.20;99236.95;25048;1317;3030117;-70
2022/01/19 00:27:55;;;;;;;6.50;3.70;;;;;;;-4.61;72.64;99245.76;25053;1318;3026423;-70
2022/01/19 00:30:26;;;;;;;8.70;3.50;;;;;;;-4.70;72.18;99242.19;25043;1316;3053746;-74
2022/01/19 00:32:55;;;;;;;7.50;3.80;;;;;;;-4.88;73.33;99253.85;25018;1316;3026949;-77
2022/01/19 00:35:24;;;;;;;7.80;3.60;;;;;;;-5.04;73.80;99247.38;25015;1317;3026666;-72
2022/01/19 00:37:53;;;;;;;6.20;3.30;;;;;;;-5.00;73.85;99248.39;25033;1317;3052553;-72
2022/01/19 00:40:22;;;;;;;11.80;3.50;;;;;;;-5.06;74.31;99248.75;25063;1318;3028002;-66
2022/01/19 00:42:52;;;;;;;6.80;3.30;;;;;;;-5.01;74.55;99248.73;24993;1317;3050173;-67
2022/01/19 00:45:21;;;;;;;7.50;3.30;;;;;;;-4.49;73.83;99258.55;25031;1316;3026849;-75
2022/01/19 00:47:52;;;;;;;6.80;2.80;;;;;;;-4.04;71.75;99234.76;25038;1318;3026865;-70
2022/01/19 00:50:23;;;;;;;6.30;2.60;;;;;;;-4.21;71.44;99236.89;25091;1317;3026853;-73
2022/01/19 00:52:52;;;;;;;9.80;3.90;;;;;;;-4.46;71.91;99245.37;25045;1318;3050820;-69
2022/01/19 00:55:22;;;;;;;5.50;3.10;;;;;;;-4.51;72.69;99242.47;25065;1316;3026557;-69
2022/01/19 00:57:52;;;;;;;14.00;4.50;;;;;;;-4.70;72.77;99234.16;25064;1316;3051558;-73
2022/01/19 01:00:25;;;;;;;7.90;3.50;;;;;;;-4.76;73.33;99243.23;25034;1317;3026433;-67
2022/01/19 01:02:54;;;;;;;8.80;3.50;;;;;;;-4.92;73.83;99246.67;25033;1318;3027054;-74
2022/01/19 01:05:24;;;;;;;6.30;3.60;;;;;;;-5.10;74.94;99255.91;25038;1319;3026718;-69
2022/01/19 01:07:53;;;;;;;13.40;3.90;;;;;;;-5.12;75.24;99246.70;25060;1318;3029600;-71
2022/01/19 01:10:23;;;;;;;9.50;4.60;;;;;;;-5.13;75.50;99253.88;25003;1316;3058497;-69
2022/01/19 01:12:54;;;;;;;9.50;3.60;;;;;;;-5.08;75.54;99253.35;25041;1316;3026102;-68
2022/01/19 01:15:48;;;;;;;6.20;3.30;;;;;;;-4.42;73.88;99246.38;25094;1318;3026539;-71
2022/01/19 01:18:19;;;;;;;5.00;2.70;;;;;;;-3.81;71.42;99243.19;25110;1316;3051159;-73
2022/01/19 01:20:51;;;;;;;8.50;3.00;;;;;;;-3.67;70.84;99242.25;25050;1317;3026272;-73
2022/01/19 01:23:21;;;;;;;7.60;3.70;;;;;;;-3.96;70.37;99255.09;25094;1317;3026331;-75
2022/01/19 01:25:51;;;;;;;7.60;3.00;;;;;;;-4.10;71.21;99255.33;25057;1320;3027096;-70
2022/01/19 01:28:19;;;;;;;4.80;2.90;;;;;;;-4.43;72.02;99265.71;25064;1317;3026668;-75
2022/01/19 01:30:54;;;;;;;7.10;3.10;;;;;;;-4.57;72.85;99274.13;25075;1316;3051647;-70
2022/01/19 01:33:23;;;;;;;8.30;3.80;;;;;;;-4.58;72.44;99274.13;25052;1317;3026843;-72
2022/01/19 01:35:52;;;;;;;6.50;3.30;;;;;;;-4.76;73.09;99280.66;25061;1318;3068195;-71
2022/01/19 01:38:24;;;;;;;7.00;3.50;;;;;;;-4.89;74.04;99289.91;25075;1317;3026533;-67
2022/01/19 01:40:53;;;;;;;6.50;2.70;;;;;;;-4.90;74.15;99291.61;25042;1318;3026560;-71
2022/01/19 01:43:22;;;;;;;12.40;3.40;;;;;;;-4.89;73.32;99301.87;24989;1316;3069977;-71
2022/01/19 01:45:58;;;;;;;5.30;3.20;;;;;;;-4.99;73.96;99304.09;25075;1317;3026455;-71
2022/01/19 01:48:27;;;;;;;6.00;2.90;;;;;;;-5.01;73.63;99303.56;25054;1318;3055720;-68
2022/01/19 01:53:49;;;;;;;6.00;3.20;;;;;;;-3.94;70.93;99304.70;25063;1316;3048598;-73
2022/01/19 01:56:18;;;;;;;11.40;3.30;;;;;;;-3.58;69.34;99298.34;25043;1317;3029149;-69
2022/01/19 01:58:49;;;;;;;6.50;3.10;;;;;;;-3.88;69.15;99297.31;25100;1317;3070189;-68
2022/01/19 02:01:31;;;;;;;4.40;2.40;;;;;;;-4.12;69.60;99295.55;25049;1316;3049340;-68
2022/01/19 02:04:03;;;;;;;4.80;2.20;;;;;;;-4.41;70.52;99294.94;25075;1317;3026450;-69
2022/01/19 02:06:38;;;;;;;7.00;3.10;;;;;;;-4.48;70.93;99295.30;25060;1316;3026684;-71
2022/01/19 02:09:25;;;;;;;9.20;4.00;;;;;;;-4.56;70.87;99305.59;25120;1316;3058774;-71
2022/01/19 02:23:21;;;;;;;6.10;2.70;;;;;;;-5.00;73.01;99316.90;25085;1316;3048504;-70
2022/01/19 02:25:52;;;;;;;8.40;3.50;;;;;;;-5.03;73.28;99327.50;25089;1318;3051209;-74
2022/01/19 02:42:25;;;;;;;6.70;3.20;;;;;;;-4.05;69.66;99318.44;25038;1316;3071220;-70
2022/01/19 02:49:54;;;;;;;7.60;3.80;;;;;;;-4.76;71.90;99322.52;25037;1317;3070350;-69
2022/01/19 02:52:23;;;;;;;7.50;3.10;;;;;;;-4.83;72.11;99319.11;25043;1317;3028270;-71
2022/01/19 02:54:52;;;;;;;6.00;3.20;;;;;;;-4.96;72.39;99311.26;25003;1316;3027312;-69
2022/01/19 02:57:25;;;;;;;12.00;3.80;;;;;;;-5.01;72.64;99321.35;25070;1318;3026136;-73
2022/01/19 03:10:50;;;;;;;5.10;3.00;;;;;;;-5.02;73.06;99323.39;25093;1316;3053035;-69
2022/01/19 03:13:39;;;;;;;6.60;4.50;;;;;;;-5.05;73.57;99323.23;25014;1316;3051502;-71
2022/01/19 03:16:08;;;;;;;5.30;2.40;;;;;;;-5.01;73.19;99334.15;25046;1316;3026897;-74
2022/01/19 03:18:37;;;;;;;3.30;2.30;;;;;;;-4.75;72.75;99334.48;25080;1316;3049034;-70
2022/01/19 03:21:06;;;;;;;3.70;2.60;;;;;;;-4.11;70.93;99330.27;25086;1316;3026941;-68
2022/01/19 03:23:35;;;;;;;7.30;2.70;;;;;;;-4.02;69.43;99339.65;25058;1317;3055243;-66
2022/01/19 03:26:06;;;;;;;6.00;2.90;;;;;;;-4.04;69.26;99338.62;25040;1317;3026959;-73
2022/01/19 03:28:36;;;;;;;9.70;3.00;;;;;;;-4.12;69.68;99352.50;25000;1316;3052947;-69
2022/01/19 03:31:11;;;;;;;8.90;2.40;;;;;;;-4.48;70.01;99364.04;25038;1317;3056338;-69
2022/01/19 03:33:40;;;;;;;9.00;4.00;;;;;;;-4.60;70.54;99364.73;25035;1318;3026574;-69
2022/01/19 03:36:09;;;;;;;4.50;2.60;;;;;;;-4.62;70.70;99361.48;25082;1318;3053694;-73
2022/01/19 03:38:39;;;;;;;5.00;2.60;;;;;;;-4.81;71.55;99379.10;25080;1317;3026419;-69
2022/01/19 03:41:08;;;;;;;6.90;4.00;;;;;;;-4.96;71.81;99378.23;25083;1317;3026227;-70
2022/01/19 03:43:37;;;;;;;7.50;4.30;;;;;;;-4.84;71.36;99384.05;25079;1317;3055358;-66
2022/01/19 03:46:15;;;;;;;10.40;3.20;;;;;;;-4.72;71.39;99373.96;25059;1316;3058782;-70
2022/01/19 03:48:57;;;;;;;8.00;3.70;;;;;;;-4.87;72.08;99385.59;25111;1317;3026593;-67
2022/01/19 03:51:26;;;;;;;10.40;3.80;;;;;;;-4.89;71.96;99382.17;25121;1316;3053389;-70
2022/01/19 03:53:55;;;;;;;7.80;3.60;;;;;;;-4.92;71.94;99393.45;25121;1317;3026399;-71
2022/01/19 03:56:25;;;;;;;6.00;3.00;;;;;;;-4.95;72.18;99394.29;25060;1317;3026455;-66
2022/01/19 03:58:54;;;;;;;6.30;2.70;;;;;;;-4.97;71.91;99390.71;25006;1317;3026348;-66
2022/01/19 04:01:23;;;;;;;5.10;3.00;;;;;;;-5.05;72.13;99400.60;25008;1317;3050543;-69
2022/01/19 04:09:20;;;;;;;9.50;4.40;;;;;;;-5.04;72.28;99414.62;25078;1316;3050248;-70
2022/01/19 04:11:49;;;;;;;5.10;2.70;;;;;;;-4.97;72.05;99416.33;25039;1317;3026346;-73
2022/01/19 04:14:38;;;;;;;5.90;3.10;;;;;;;-5.09;72.05;99421.95;25023;1317;3053237;-69
2022/01/19 04:17:09;;;;;;;11.90;2.90;;;;;;;-5.06;72.36;99437.50;25011;1317;3026815;-71
2022/01/19 04:22:23;;;;;;;11.50;3.30;;;;;;;-5.07;71.93;99442.97;25166;1317;3051319;-71
2022/01/19 04:24:56;;;;;;;13.70;3.70;;;;;;;-5.04;71.99;99442.46;25074;1317;3050866;-73
2022/01/19 04:30:10;;;;;;;6.70;3.10;;;;;;;-5.12;72.38;99443.13;25096;1317;3056045;-72
2022/01/19 04:33:07;;;;;;;4.40;2.00;;;;;;;-5.06;72.56;99457.48;25076;1316;3051992;-69
2022/01/19 04:35:54;;;;;;;3.50;1.90;;;;;;;-4.46;71.72;99448.66;25042;1317;3070425;-71
2022/01/19 04:44:28;;;;;;;6.60;3.10;;;;;;;-4.01;68.27;99451.20;25067;1316;3051298;-69
2022/01/19 04:48:15;;;;;;;6.80;2.60;;;;;;;-4.12;68.56;99465.24;25101;1317;3056796;-71
2022/01/19 05:07:09;;;;;;;5.60;3.10;;;;;;;-4.95;71.91;99485.20;25066;1317;3055652;-71
2022/01/19 05:15:00;;;;;;;5.10;2.70;;;;;;;-5.04;71.89;99509.77;25074;1317;3056487;-69
2022/01/19 05:17:38;;;;;;;4.70;2.60;;;;;;;-4.99;72.24;99503.96;25077;1315;3052671;-72
2022/01/19 05:20:08;;;;;;;5.30;3.10;;;;;;;-5.03;71.65;99515.41;24984;1317;3026546;-73
2022/01/19 05:22:37;;;;;;;10.10;4.30;;;;;;;-5.18;72.65;99506.47;25031;1317;3026445;-70
2022/01/19 05:25:13;;;;;;;10.90;3.70;;;;;;;-5.02;72.38;99505.16;25076;1317;3053808;-73
2022/01/19 05:28:07;;;;;;;9.00;3.00;;;;;;;-4.89;71.71;99501.95;25131;1317;3050760;-72
2022/01/19 05:30:42;;;;;;;7.00;3.60;;;;;;;-4.94;71.94;99517.15;24991;1317;3058860;-71
2022/01/19 05:33:11;;;;;;;7.30;3.70;;;;;;;-5.08;72.68;99515.21;25038;1318;3026997;-69
2022/01/19 05:35:40;;;;;;;11.60;5.00;;;;;;;-5.00;72.40;99515.24;25011;1317;3027337;-68
2022/01/19 05:38:29;;;;;;;10.60;3.60;;;;;;;-4.90;72.18;99513.90;25071;1315;3052726;-70
2022/01/19 05:41:06;;;;;;;7.40;3.10;;;;;;;-4.90;71.79;99514.58;25050;1317;3071048;-73
2022/01/19 05:43:36;;;;;;;10.80;4.00;;;;;;;-5.06;72.08;99521.38;25104;1316;3026979;-73
2022/01/19 05:46:05;;;;;;;10.30;4.90;;;;;;;-4.96;72.32;99526.02;25038;1317;3026847;-73
2022/01/19 05:48:38;;;;;;;17.80;4.20;;;;;;;-5.01;71.98;99528.05;25031;1317;3026429;-75
2022/01/19 05:51:07;;;;;;;9.00;4.40;;;;;;;-4.93;72.27;99534.74;25000;1318;3026624;-72
2022/01/19 05:53:36;;;;;;;8.60;3.80;;;;;;;-4.92;71.76;99539.02;25101;1317;3051826;-64
2022/01/19 05:56:08;;;;;;;10.50;4.20;;;;;;;-4.89;71.80;99540.39;25093;1317;3026134;-75
2022/01/19 05:58:51;;;;;;;17.40;4.80;;;;;;;-4.90;71.33;99543.63;25105;1317;3055471;-71
2022/01/19 06:01:20;;;;;;;8.90;3.80;;;;;;;-4.86;71.34;99547.40;25061;1316;3026165;-69
2022/01/19 06:03:51;;;;;;;7.90;4.20;;;;;;;-5.02;71.20;99553.85;25094;1317;3052285;-73
2022/01/19 06:06:39;;;;;;;15.40;4.90;;;;;;;-4.97;71.71;99543.62;25114;1317;3056766;-68
2022/01/19 06:09:50;;;;;;;8.70;4.10;;;;;;;-4.89;71.05;99544.33;25055;1315;3052141;-72
2022/01/19 06:12:20;;;;;;;12.40;4.40;;;;;;;-4.80;70.91;99542.30;25065;1315;3051716;-76
2022/01/19 06:14:49;;;;;;;12.90;3.50;;;;;;;-4.69;70.61;99546.42;25026;1318;3026746;-73
2022/01/19 06:17:18;;;;;;;8.60;3.40;;;;;;;-4.73;70.36;99548.30;25001;1318;3048911;-79
2022/01/19 06:19:48;;;;;;;7.60;3.80;;;;;;;-4.66;70.43;99549.86;25042;1316;3026542;-73
2022/01/19 06:22:18;;;;;;;9.30;3.80;;;;;;;-4.87;70.61;99555.61;25117;1315;3055974;-73
2022/01/19 06:24:48;;;;;;;7.70;4.00;;;;;;;-4.97;71.04;99554.55;25085;1316;3027045;-71
2022/01/19 06:27:18;;;;;;;13.60;3.60;;;;;;;-4.86;70.52;99558.35;25144;1315;3027023;-76
2022/01/19 06:29:47;;;;;;;15.80;5.20;;;;;;;-4.92;70.75;99554.56;25074;1317;3026499;-74
2022/01/19 06:32:16;;;;;;;11.50;4.40;;;;;;;-4.88;70.81;99566.02;25025;1317;3049631;-75
2022/01/19 06:34:46;;;;;;;16.10;4.60;;;;;;;-4.94;71.05;99562.41;25065;1314;3027624;-71
2022/01/19 06:37:23;;;;;;;8.30;3.00;;;;;;;-4.79;70.50;99574.95;25096;1315;3054133;-72
2022/01/19 06:40:14;;;;;;;8.40;4.00;;;;;;;-4.90;70.39;99576.79;25015;1315;3071789;-74
2022/01/19 06:42:44;;;;;;;9.10;3.90;;;;;;;-4.82;70.56;99584.16;25068;1317;3026692;-74
2022/01/19 06:45:13;;;;;;;7.00;3.00;;;;;;;-4.68;69.89;99589.52;25036;1318;3026741;-74
2022/01/19 06:47:43;;;;;;;11.50;3.80;;;;;;;-4.86;70.33;99597.48;25060;1316;3027794;-71
2022/01/19 06:50:12;;;;;;;10.50;3.60;;;;;;;-4.82;70.28;99606.73;25073;1317;3026611;-69
2022/01/19 06:52:44;;;;;;;6.80;3.40;;;;;;;-4.76;69.81;99607.77;25046;1315;3052926;-76
2022/01/19 06:55:14;;;;;;;9.70;4.00;;;;;;;-4.82;69.83;99606.05;25035;1317;3027347;-69
2022/01/19 06:57:44;;;;;;;8.60;3.60;;;;;;;-4.85;70.33;99607.74;25039;1315;3028018;-76
2022/01/19 07:00:33;;;;;;;7.00;2.90;;;;;;;-4.72;69.99;99611.89;25068;1317;3054137;-77
2022/01/19 07:03:11;;;;;;;10.10;3.60;;;;;;;-4.92;70.17;99625.14;25107;1315;3052094;-71
2022/01/19 07:05:52;;;;;;;8.00;3.40;;;;;;;-4.96;70.43;99631.27;25036;1317;3057255;-71
2022/01/19 07:08:45;;;;;;;6.00;3.00;;;;;;;-4.95;70.16;99635.89;25177;1316;3050314;-76
2022/01/19 07:11:14;;;;;;;9.10;3.50;;;;;;;-4.86;69.94;99637.30;25033;1317;3026587;-73
2022/01/19 07:13:43;;;;;;;12.50;3.80;;;;;;;-4.75;69.45;99637.02;25050;1318;3055103;-78
2022/01/19 07:16:12;;;;;;;11.60;4.90;;;;;;;-4.79;69.60;99643.14;25030;1316;3026492;-70
2022/01/19 07:18:41;;;;;;;8.30;4.30;;;;;;;-4.72;69.71;99640.09;24991;1317;3027144;-73
2022/01/19 07:21:19;;;;;;;11.00;4.00;;;;;;;-4.73;69.39;99639.73;25007;1318;3053666;-74
2022/01/19 07:23:53;;;;;;;;;;;;;;;-4.65;69.40;99641.84;25059;1315;3068456;-76
2022/01/19 07:26:22;;;;;;;10.90;3.90;;;;;;;-4.66;69.06;99644.73;25191;1315;3027171;-73
2022/01/19 07:28:51;;;;;;;8.60;3.70;;;;;;;-4.66;68.77;99650.38;25133;1315;3050819;-75
2022/01/19 07:31:20;;;;;;;4.70;2.70;;;;;;;-4.58;68.31;99648.69;24996;1319;3026587;-69
2022/01/19 07:33:49;;;;;;;7.10;2.60;;;;;;;-4.69;68.83;99654.13;25022;1316;3053712;-72
2022/01/19 07:36:18;;;;;;;9.20;3.80;;;;;;;-4.83;68.96;99648.60;25084;1315;3027573;-74
2022/01/19 07:38:48;;;;;;;6.40;2.70;;;;;;;-4.68;68.88;99640.45;25106;1316;3026891;-73
2022/01/19 07:41:17;;;;;;;11.30;3.40;;;;;;;-4.77;68.23;99647.77;25025;1317;3026784;-70
2022/01/19 07:43:50;;;;;;;7.20;2.80;;;;;;;-4.88;68.12;99646.52;25087;1317;3054527;-69
2022/01/19 07:46:38;;;;;;;10.70;3.80;;;;;;;-4.87;68.35;99642.93;25076;1318;3071193;-72
2022/01/19 07:49:33;;;;;;;;;;;;;;;-4.78;67.89;99644.67;25034;1316;3053838;-74
2022/01/19 07:52:22;;;;;;;5.50;2.90;;;;;;;-4.91;67.92;99650.27;25075;1317;3053487;-71
2022/01/19 07:55:05;;;;;;;6.50;3.50;;;;;;;-5.03;68.31;99645.41;25097;1317;3055003;-73
2022/01/19 07:57:51;;;;;;;12.70;4.40;;;;;;;-4.91;67.69;99651.46;25098;1317;3055719;-78
2022/01/19 08:00:42;;;;;;;11.70;3.90;;;;;;;-4.86;67.74;99640.55;25125;1317;3049201;-73
2022/01/19 08:03:39;;;;;;;10.50;2.60;;;;;;;-4.90;68.13;99646.01;25105;1316;3053053;-70
2022/01/19 08:06:17;;;;;;;5.90;2.90;;;;;;;-4.79;67.65;99647.77;25132;1317;3052459;-71
2022/01/19 08:24:26;;;;;;;;;;;;;;;;;;;;;
2022/01/19 08:31:15;;;;;;;7.40;3.30;;;;;;;-4.88;67.71;99643.78;13338;1317;3070695;-76
2022/01/19 08:34:22;;;;;;;5.30;2.60;;;;;;;-4.93;67.80;99635.73;25760;1315;3051251;-70
2022/01/19 08:37:15;;;;;;;11.00;3.80;;;;;;;-4.96;67.60;99632.30;25411;1315;3067859;-74
2022/01/19 08:40:10;;;;;;;10.90;3.60;;;;;;;-4.72;67.18;99629.84;9788;1316;3050992;-73
2022/01/19 09:14:52;;;;;;;5.80;2.60;;;;;;;-4.43;65.56;99618.65;4502;1324;3106496;-75
2022/01/19 09:18:19;;;;;;;7.30;3.00;;;;;;;-4.46;64.95;99624.29;6891;1334;3071107;-73
2022/01/19 09:21:22;;;;;;;6.40;2.60;;;;;;;-4.70;65.11;99636.17;3988;1325;3103082;-74
2022/01/19 09:24:28;;;;;;;5.50;2.50;;;;;;;-4.61;65.18;99624.58;3794;1326;3088899;-73
2022/01/19 09:28:03;;;;;;;12.40;3.00;;;;;;;-4.66;65.69;99625.59;4422;1325;3074782;-72
2022/01/19 09:32:01;;;;;;;6.00;3.20;;;;;;;-4.30;64.67;99621.92;3771;1326;3100517;-73
2022/01/19 09:36:28;;;;;;;;;;;;;;;;;;;;;
2022/01/19 09:43:12;;;;;;;4.80;2.20;;;;;;;-4.65;66.67;99628.50;3866;1326;3135132;-72
2022/01/19 09:46:52;;;;;;;4.50;2.20;;;;;;;-4.48;66.46;99628.73;4012;1324;3077442;-72
2022/01/19 09:49:40;;;;;;;8.20;2.70;;;;;;;-4.72;66.76;99628.64;4172;1325;3103576;-75
2022/01/19 09:53:14;;;;;;;;;;;;;;;;;;;;;
2022/01/19 09:56:28;;;;;;;12.50;5.30;;;;;;;-4.12;65.92;99636.33;3733;1324;3099375;-72
2022/01/19 10:00:14;;;;;;;10.40;3.80;;;;;;;-3.99;64.88;99631.22;4286;1325;3098040;-73
2022/01/19 10:07:28;;;;;;;6.30;2.80;;;;;;;-4.43;65.47;99629.25;4331;1327;3109746;-72
2022/01/19 10:21:21;;;;;;;6.10;3.00;;;;;;;-3.91;64.23;99632.23;4072;1324;3232679;-71
2022/01/19 10:24:57;;;;;;;6.10;3.00;;;;;;;-3.29;62.09;99633.95;8992;1326;3171016;-73
2022/01/19 10:27:54;;;;;;;6.10;3.00;;;;;;;-3.62;62.22;99642.19;3956;1321;3251605;-72
2022/01/19 10:30:55;;;;;;;6.10;3.00;;;;;;;-3.33;61.49;99638.23;8442;1321;3167980;-74
2022/01/19 10:36:57;;;;;;;6.10;3.00;;;;;;;-3.01;59.95;99646.73;7372;1311;3218193;-73
2022/01/19 10:40:22;;;;;;;6.10;3.00;;;;;;;-3.33;60.07;99654.50;5552;1318;3231789;-71
2022/01/19 10:43:31;;;;;;;6.10;3.00;;;;;;;-3.15;59.87;99650.53;5234;1315;3201959;-72
2022/01/19 10:49:55;;;;;;;6.10;3.00;;;;;;;-2.83;59.17;99643.42;5359;1318;3181998;-73
2022/01/19 10:52:55;;;;;;;6.10;3.00;;;;;;;-2.93;58.74;99654.42;4694;1319;3192662;-73
2022/01/19 11:06:24;;;;;;;6.10;3.00;;;;;;;-2.94;58.83;99657.85;4622;1315;3173840;-74
2022/01/19 11:09:56;;;;;;;6.10;3.00;;;;;;;-3.44;60.24;99661.54;5230;1311;4307222;-71
2022/01/19 11:12:56;;;;;;;6.10;3.00;;;;;;;-3.52;61.28;99657.09;5839;1313;3321196;-71
2022/01/19 11:15:59;;;;;;;6.10;3.00;;;;;;;-2.97;60.23;99648.62;4984;1315;3315063;-73
2022/01/19 11:19:19;;;;;;;6.10;3.00;;;;;;;-3.12;60.28;99650.88;7641;1314;3206143;-73
2022/01/19 11:22:19;;;;;;;6.10;3.00;;;;;;;-3.64;61.38;99661.36;6137;1311;3200588;-71
2022/01/19 11:25:22;;;;;;;6.10;3.00;;;;;;;-3.55;61.31;99653.15;1541;1319;3299051;-73
2022/01/19 11:27:52;;;;;;;12.70;6.60;;;;;;;-3.39;61.39;99646.80;25162;1308;3051063;-71
2022/01/19 11:30:25;;;;;;;14.10;5.60;;;;;;;-3.51;61.55;99647.48;25204;1310;3026685;-73
2022/01/19 11:33:09;;;;;;;12.80;5.70;;;;;;;-3.89;63.46;99655.17;25248;1308;3027188;-67
2022/01/19 11:35:38;;;;;;;12.90;5.50;;;;;;;-4.11;63.69;99661.48;25284;1307;3055361;-71
2022/01/19 11:38:26;;;;;;;15.30;5.70;;;;;;;-4.39;64.59;99664.32;25174;1308;3026445;-68
2022/01/19 11:40:55;;;;;;;12.30;5.90;;;;;;;-4.50;64.94;99667.54;25252;1307;3060912;-68
2022/01/19 11:43:29;;;;;;;14.00;6.30;;;;;;;-4.55;65.45;99673.50;25260;1308;3029468;-69
2022/01/19 11:45:58;;;;;;;11.90;5.60;;;;;;;-4.67;65.46;99676.69;25259;1308;3055426;-72
2022/01/19 11:48:30;;;;;;;9.30;4.40;;;;;;;-4.60;65.53;99673.14;25232;1309;3026906;-69
2022/01/19 11:51:41;;;;;;;10.60;4.40;;;;;;;-4.68;65.27;99678.23;25214;1308;3027139;-69
2022/01/19 11:54:21;;;;;;;10.40;5.40;;;;;;;-4.66;65.10;99678.59;25238;1310;3050335;-73
2022/01/19 11:56:59;;;;;;;11.60;4.50;;;;;;;-4.72;65.96;99692.23;25209;1310;3050636;-75
2022/01/19 11:59:32;;;;;;;19.80;6.10;;;;;;;-4.67;66.35;99697.04;25185;1308;3051240;-71
2022/01/19 12:02:28;;;;;;;20.20;6.90;;;;;;;-4.59;66.06;99706.98;25213;1307;3027061;-69
2022/01/19 12:05:10;;;;;;;15.20;5.90;;;;;;;-4.58;65.34;99704.78;25209;1307;3051020;-75
2022/01/19 12:07:39;;;;;;;19.90;6.70;;;;;;;-4.62;65.20;99697.58;25244;1308;3055136;-72
2022/01/19 12:10:09;;;;;;;21.30;8.10;;;;;;;-4.66;65.34;99696.02;25210;1308;3026882;-73
2022/01/19 12:12:46;;;;;;;16.80;6.70;;;;;;;-4.70;65.14;99697.04;25234;1308;3052815;-75
2022/01/19 12:15:54;;;;;;;14.00;5.40;;;;;;;-4.40;64.76;99693.73;25168;1308;3055049;-73
2022/01/19 12:18:44;;;;;;;12.40;5.60;;;;;;;-4.52;63.70;99693.67;25294;1307;3054537;-71
2022/01/19 12:21:32;;;;;;;11.50;4.90;;;;;;;-4.54;63.57;99694.20;25177;1310;3070912;-71
2022/01/19 12:28:00;;;;;;;16.10;6.60;;;;;;;-4.64;64.24;99698.08;2585;1312;3133182;-73
2022/01/19 12:31:01;;;;;;;16.10;6.60;;;;;;;-4.62;64.24;99708.52;1997;1317;3134105;-73
2022/01/19 12:34:08;;;;;;;16.10;7.60;;;;;;;-3.95;62.84;99700.01;2834;1317;3154108;-71
2022/01/19 12:37:45;;;;;;;18.90;7.00;;;;;;;-4.15;62.25;99703.73;3323;1313;3103668;-74
2022/01/19 12:40:24;;;;;;;18.90;7.00;;;;;;;-4.53;63.26;99706.16;3141;1314;3169252;-74
2022/01/19 12:43:31;;;;;;;18.90;7.00;;;;;;;-4.50;63.16;99713.53;2773;1319;3164938;-71
2022/01/19 12:50:02;;;;;;;18.90;7.00;;;;;;;-3.54;60.82;99712.05;2678;1313;3180065;-72
2022/01/19 12:53:18;;;;;;;18.90;7.00;;;;;;;-3.64;60.57;99713.42;3639;1308;3164321;-72
2022/01/19 12:56:18;;;;;;;18.90;7.00;;;;;;;-3.34;59.49;99707.45;2713;1316;3207035;-69
2022/01/19 12:58:55;;;;;;;18.90;7.00;;;;;;;-3.28;59.36;99702.81;3076;1314;3198001;-71
2022/01/19 13:01:57;;;;;;;18.90;7.00;;;;;;;-3.31;58.98;99706.07;2284;1315;3276481;-73
2022/01/19 13:04:46;;;;;;;18.90;7.00;;;;;;;-3.16;59.39;99701.60;2718;1319;3276091;-74
2022/01/19 13:07:47;;;;;;;18.90;7.00;;;;;;;-3.21;58.78;99705.72;2614;1317;3209026;-73
2022/01/19 13:10:46;;;;;;;18.90;7.00;;;;;;;-3.20;58.63;99710.85;2274;1317;3334133;-72
2022/01/19 13:13:58;;;;;;;;;;;;;;;;;;;;;
2022/01/19 13:16:42;;;;;;;18.90;7.00;;;;;;;-3.10;58.23;99712.73;1782;1322;3186445;-74
2022/01/19 13:19:38;;;;;;;18.90;7.00;;;;;;;-3.02;58.83;99712.55;1888;1329;3211247;-74
2022/01/19 13:22:22;;;;;;;18.90;7.00;;;;;;;-2.82;57.96;99705.48;1507;1319;3170949;-72
2022/01/19 14:29:36;;;;;;;37.50;15.10;;;;;;;-3.96;60.84;99747.94;6005;1316;3237385;-73
2022/01/19 14:35:37;;;;;;;37.50;15.10;;;;;;;-3.88;60.87;99756.86;10661;1315;3258975;-73
2022/01/19 14:39:10;;;;;;;37.50;15.10;;;;;;;-3.54;60.40;99760.36;7674;1315;3245660;-71
2022/01/19 14:42:23;;;;;;;37.50;15.10;;;;;;;-3.41;59.58;99766.36;3921;1314;3344293;-70
2022/01/19 14:45:25;;;;;;;37.50;15.10;;;;;;;-3.52;59.72;99767.55;4226;1315;3217270;-73
2022/01/19 14:48:25;;;;;;;37.50;15.10;;;;;;;-3.43;59.24;99772.20;10566;1311;3208919;-71
2022/01/19 14:51:32;;;;;;;37.50;15.10;;;;;;;-3.67;59.94;99777.80;5567;1316;3379328;-72
2022/01/19 14:55:06;;;;;;;37.50;15.10;;;;;;;-3.70;59.52;99781.38;7636;1314;3340112;-72
2022/01/19 14:58:29;;;;;;;37.50;15.10;;;;;;;-3.94;60.17;99784.73;11405;1314;3247682;-74
2022/01/19 15:01:45;;;;;;;37.50;15.10;;;;;;;-3.99;60.21;99791.91;8537;1313;3276314;-70
2022/01/19 15:04:44;;;;;;;37.50;15.10;;;;;;;-3.97;60.25;99792.95;6429;1314;3171631;-73
2022/01/19 15:07:52;;;;;;;37.50;15.10;;;;;;;-3.66;59.26;99787.39;5025;1310;3238635;-72
2022/01/19 15:10:26;;;;;;;37.50;15.10;;;;;;;-3.46;58.64;99791.02;8165;1315;3344021;-73
2022/01/19 15:13:21;;;;;;;37.50;15.10;;;;;;;-3.64;58.82;99792.19;8341;1308;3276042;-70
2022/01/19 15:16:16;;;;;;;37.50;15.10;;;;;;;-3.71;58.93;99793.37;8230;1314;3248167;-72
2022/01/19 15:18:54;;;;;;;37.50;15.10;;;;;;;-3.64;58.75;99790.81;7564;1314;3201691;-73
2022/01/19 15:22:01;;;;;;;;;;;;;;;;;;;;;
2022/01/19 15:25:18;;;;;;;37.50;15.10;;;;;;;-3.32;57.83;99797.89;5120;1311;3195615;-71
2022/01/19 15:28:12;;;;;;;37.50;15.10;;;;;;;-3.87;58.57;99801.38;10768;1309;3386361;-71
2022/01/19 15:30:59;;;;;;;37.50;15.10;;;;;;;-3.88;58.97;99799.30;8001;1309;3179011;-71
2022/01/19 15:39:46;;;;;;;37.50;15.10;;;;;;;-3.40;57.95;99810.05;11021;1310;3301474;-73
2022/01/19 15:54:01;;;;;;;37.50;15.10;;;;;;;-3.60;57.93;99800.75;4709;1312;3253288;-71
2022/01/19 15:57:03;;;;;;;37.50;15.10;;;;;;;-3.66;57.54;99801.44;4279;1314;3134430;-70
2022/01/19 15:59:58;;;;;;;37.50;15.10;;;;;;;-3.58;57.44;99804.36;11781;1312;3226781;-72
2022/01/19 16:02:43;;;;;;;37.50;15.10;;;;;;;-3.43;56.93;99805.08;8840;1313;3169745;-73
2022/01/19 16:06:06;;;;;;;30.50;12.60;;;;;;;-3.39;56.27;99806.29;11044;1313;3163945;-71
2022/01/19 16:08:43;;;;;;;30.50;12.60;;;;;;;-4.11;57.64;99807.77;8442;1310;3174823;-73
2022/01/19 16:11:15;;;;;;;22.30;10.30;;;;;;;-4.61;59.43;99805.61;10992;1308;3260558;-74
2022/01/19 16:13:45;;;;;;;22.30;10.30;;;;;;;-4.83;59.51;99802.23;7855;1309;3218647;-70
2022/01/19 16:16:39;;;;;;;22.30;10.30;;;;;;;-4.75;59.81;99802.80;4871;1313;3222076;-72
2022/01/19 16:19:14;;;;;;;22.30;10.30;;;;;;;-4.58;59.20;99809.23;4589;1315;3239316;-71
2022/01/19 16:26:06;;;;;;;22.30;10.30;;;;;;;-4.27;58.14;99817.10;8006;1308;3174169;-72
2022/01/19 16:28:26;;;;;;;22.30;10.30;;;;;;;-4.05;57.26;99811.75;6040;1312;3321503;-71
2022/01/19 16:31:23;;;;;;;22.30;10.30;;;;;;;-3.89;56.57;99812.99;4894;1310;3214695;-72
2022/01/19 16:33:55;;;;;;;22.30;10.30;;;;;;;-3.76;56.23;99805.84;7602;1315;3376047;-70
2022/01/19 16:37:36;;;;;;;22.30;10.30;;;;;;;-4.05;56.49;99810.53;7767;1310;3192952;-73
2022/01/19 16:43:31;;;;;;;22.30;10.30;;;;;;;-4.09;56.09;99809.84;8727;1312;3251984;-75
2022/01/19 16:46:52;;;;;;;22.30;10.30;;;;;;;-4.18;56.28;99811.84;1636;1313;3159369;-71
2022/01/19 16:56:23;;;;;;;22.30;10.30;;;;;;;-4.15;56.52;99810.67;1683;1316;3172492;-73
2022/01/19 17:02:21;;;;;;;28.80;15.40;;;;;;;-4.40;57.02;99809.33;2102;1320;3201326;-72
2022/01/19 17:05:25;;;;;;;28.80;15.40;;;;;;;-4.57;58.31;99813.17;2818;1312;3199252;-71
2022/01/19 17:08:43;;;;;;;28.80;15.40;;;;;;;-3.97;56.91;99804.92;1733;1329;3156877;-70
2022/01/19 17:15:53;;;;;;;28.80;15.40;;;;;;;-3.36;55.37;99802.02;1779;1319;3171885;-71
2022/01/19 17:18:37;;;;;;;28.80;15.40;;;;;;;-3.19;55.02;99809.90;1902;1313;3176199;-71
2022/01/19 17:21:39;;;;;;;28.80;15.40;;;;;;;-3.22;54.79;99810.74;1649;1318;3205506;-72
2022/01/19 17:24:30;;;;;;;28.80;15.40;;;;;;;-3.17;54.77;99815.73;1516;1316;3173391;-71